sensor_id;sensor_type;location;lat;lon;timestamp;P1;durP1;ratioP1;P2;durP2;ratioP2
76610;SDS011;65503;48.534;9.062;2023-05-10T00:01:58;4.10;;;2.00;;
76610;SDS011;65503;48.534;9.062;2023-05-10T00:04:25;4.93;;;2.38;;
76610;SDS011;65503;48.534;9.062;2023-05-10T00:06:53;4.60;;;2.47;;
76610;SDS011;65503;48.534;9.062;2023-05-10T00:09:20;4.20;;;2.10;;
76610;SDS011;65503;48.534;9.062;2023-05-10T00:11:47;5.03;;;2.10;;
76610;SDS011;65503;48.534;9.062;2023-05-10T00:14:13;5.50;;;2.25;;
76610;SDS011;65503;48.534;9.062;2023-05-10T00:16:40;4.00;;;2.08;;
76610;SDS011;65503;48.534;9.062;2023-05-10T00:19:07;6.28;;;1.90;;
76610;SDS011;65503;48.534;9.062;2023-05-10T00:21:33;4.38;;;1.70;;
76610;SDS011;65503;48.534;9.062;2023-05-10T00:24:00;3.13;;;1.60;;
76610;SDS011;65503;48.534;9.062;2023-05-10T00:26:26;5.13;;;1.70;;
76610;SDS011;65503;48.534;9.062;2023-05-10T00:28:53;3.10;;;1.55;;
76610;SDS011;65503;48.534;9.062;2023-05-10T00:31:19;2.05;;;1.02;;
76610;SDS011;65503;48.534;9.062;2023-05-10T00:33:45;4.20;;;1.20;;
76610;SDS011;65503;48.534;9.062;2023-05-10T00:36:12;1.13;;;0.90;;
76610;SDS011;65503;48.534;9.062;2023-05-10T00:38:38;1.70;;;0.88;;
76610;SDS011;65503;48.534;9.062;2023-05-10T00:41:05;1.30;;;0.73;;
76610;SDS011;65503;48.534;9.062;2023-05-10T00:43:31;2.97;;;0.95;;
76610;SDS011;65503;48.534;9.062;2023-05-10T00:45:58;1.10;;;0.80;;
76610;SDS011;65503;48.534;9.062;2023-05-10T00:48:24;1.23;;;0.80;;
76610;SDS011;65503;48.534;9.062;2023-05-10T00:50:51;1.08;;;0.82;;
76610;SDS011;65503;48.534;9.062;2023-05-10T00:53:17;2.80;;;1.10;;
76610;SDS011;65503;48.534;9.062;2023-05-10T00:55:45;2.03;;;1.00;;
76610;SDS011;65503;48.534;9.062;2023-05-10T00:58:11;2.33;;;0.98;;
76610;SDS011;65503;48.534;9.062;2023-05-10T01:00:38;1.38;;;0.93;;
76610;SDS011;65503;48.534;9.062;2023-05-10T01:03:08;1.27;;;0.90;;
76610;SDS011;65503;48.534;9.062;2023-05-10T01:05:35;3.55;;;1.10;;
76610;SDS011;65503;48.534;9.062;2023-05-10T01:08:02;1.38;;;1.00;;
76610;SDS011;65503;48.534;9.062;2023-05-10T01:10:28;2.08;;;1.17;;
76610;SDS011;65503;48.534;9.062;2023-05-10T01:12:55;1.10;;;0.88;;
76610;SDS011;65503;48.534;9.062;2023-05-10T01:15:23;1.38;;;0.98;;
76610;SDS011;65503;48.534;9.062;2023-05-10T01:17:49;2.03;;;0.90;;
76610;SDS011;65503;48.534;9.062;2023-05-10T01:20:17;1.27;;;0.73;;
76610;SDS011;65503;48.534;9.062;2023-05-10T01:25:19;1.27;;;0.60;;
76610;SDS011;65503;48.534;9.062;2023-05-10T01:27:59;0.73;;;0.60;;
76610;SDS011;65503;48.534;9.062;2023-05-10T01:33:43;0.85;;;0.77;;
76610;SDS011;65503;48.534;9.062;2023-05-10T01:39:20;1.08;;;0.90;;
76610;SDS011;65503;48.534;9.062;2023-05-10T01:41:56;1.98;;;0.63;;
76610;SDS011;65503;48.534;9.062;2023-05-10T01:44:43;0.50;;;0.50;;
76610;SDS011;65503;48.534;9.062;2023-05-10T01:47:12;2.00;;;0.50;;
76610;SDS011;65503;48.534;9.062;2023-05-10T01:49:45;1.58;;;0.60;;
76610;SDS011;65503;48.534;9.062;2023-05-10T01:52:17;1.25;;;0.88;;
76610;SDS011;65503;48.534;9.062;2023-05-10T01:54:50;0.40;;;0.40;;
76610;SDS011;65503;48.534;9.062;2023-05-10T01:57:22;0.63;;;0.60;;
76610;SDS011;65503;48.534;9.062;2023-05-10T01:59:53;0.93;;;0.65;;
76610;SDS011;65503;48.534;9.062;2023-05-10T02:02:21;2.47;;;0.60;;
76610;SDS011;65503;48.534;9.062;2023-05-10T02:04:49;1.30;;;0.75;;
76610;SDS011;65503;48.534;9.062;2023-05-10T02:07:18;0.50;;;0.50;;
76610;SDS011;65503;48.534;9.062;2023-05-10T02:12:14;1.13;;;0.80;;
76610;SDS011;65503;48.534;9.062;2023-05-10T02:14:42;1.10;;;0.80;;
76610;SDS011;65503;48.534;9.062;2023-05-10T02:17:10;2.65;;;0.90;;
76610;SDS011;65503;48.534;9.062;2023-05-10T02:19:38;1.30;;;0.90;;
76610;SDS011;65503;48.534;9.062;2023-05-10T02:22:06;2.63;;;0.90;;
76610;SDS011;65503;48.534;9.062;2023-05-10T02:24:35;1.70;;;0.85;;
76610;SDS011;65503;48.534;9.062;2023-05-10T02:27:04;1.23;;;0.90;;
76610;SDS011;65503;48.534;9.062;2023-05-10T02:29:32;2.33;;;0.90;;
76610;SDS011;65503;48.534;9.062;2023-05-10T02:32:00;1.65;;;0.80;;
76610;SDS011;65503;48.534;9.062;2023-05-10T02:34:28;2.35;;;0.90;;
76610;SDS011;65503;48.534;9.062;2023-05-10T02:36:56;1.08;;;0.77;;
76610;SDS011;65503;48.534;9.062;2023-05-10T02:39:22;2.92;;;1.10;;
76610;SDS011;65503;48.534;9.062;2023-05-10T02:41:51;1.48;;;1.13;;
76610;SDS011;65503;48.534;9.062;2023-05-10T02:44:19;1.33;;;0.90;;
76610;SDS011;65503;48.534;9.062;2023-05-10T02:46:46;3.45;;;0.90;;
76610;SDS011;65503;48.534;9.062;2023-05-10T02:49:13;1.83;;;0.93;;
76610;SDS011;65503;48.534;9.062;2023-05-10T02:51:41;2.22;;;1.17;;
76610;SDS011;65503;48.534;9.062;2023-05-10T02:54:20;4.13;;;1.10;;
76610;SDS011;65503;48.534;9.062;2023-05-10T02:56:51;2.40;;;1.13;;
76610;SDS011;65503;48.534;9.062;2023-05-10T02:59:22;4.20;;;1.27;;
76610;SDS011;65503;48.534;9.062;2023-05-10T03:01:49;3.00;;;1.20;;
76610;SDS011;65503;48.534;9.062;2023-05-10T03:04:16;3.03;;;1.20;;
76610;SDS011;65503;48.534;9.062;2023-05-10T03:06:42;4.30;;;1.40;;
76610;SDS011;65503;48.534;9.062;2023-05-10T03:09:09;1.92;;;1.20;;
76610;SDS011;65503;48.534;9.062;2023-05-10T03:19:55;3.25;;;1.50;;
76610;SDS011;65503;48.534;9.062;2023-05-10T03:22:30;2.97;;;1.40;;
76610;SDS011;65503;48.534;9.062;2023-05-10T03:25:00;3.58;;;1.30;;
76610;SDS011;65503;48.534;9.062;2023-05-10T03:27:32;5.97;;;1.60;;
76610;SDS011;65503;48.534;9.062;2023-05-10T03:30:00;4.05;;;1.60;;
76610;SDS011;65503;48.534;9.062;2023-05-10T03:32:29;2.63;;;1.50;;
76610;SDS011;65503;48.534;9.062;2023-05-10T03:34:58;3.10;;;1.40;;
76610;SDS011;65503;48.534;9.062;2023-05-10T03:37:24;4.57;;;1.73;;
76610;SDS011;65503;48.534;9.062;2023-05-10T03:39:51;3.10;;;1.60;;
76610;SDS011;65503;48.534;9.062;2023-05-10T03:42:17;5.65;;;1.45;;
76610;SDS011;65503;48.534;9.062;2023-05-10T03:44:44;4.63;;;1.40;;
76610;SDS011;65503;48.534;9.062;2023-05-10T03:47:11;4.03;;;1.90;;
76610;SDS011;65503;48.534;9.062;2023-05-10T03:49:37;4.43;;;1.60;;
76610;SDS011;65503;48.534;9.062;2023-05-10T03:52:04;3.45;;;1.60;;
76610;SDS011;65503;48.534;9.062;2023-05-10T03:54:31;3.25;;;1.48;;
76610;SDS011;65503;48.534;9.062;2023-05-10T03:56:58;3.67;;;1.63;;
76610;SDS011;65503;48.534;9.062;2023-05-10T03:59:24;6.43;;;1.50;;
76610;SDS011;65503;48.534;9.062;2023-05-10T04:01:51;3.00;;;1.60;;
76610;SDS011;65503;48.534;9.062;2023-05-10T04:04:18;4.25;;;1.73;;
76610;SDS011;65503;48.534;9.062;2023-05-10T04:06:45;3.05;;;1.65;;
76610;SDS011;65503;48.534;9.062;2023-05-10T04:09:11;3.05;;;1.70;;
76610;SDS011;65503;48.534;9.062;2023-05-10T04:11:38;3.47;;;1.80;;
76610;SDS011;65503;48.534;9.062;2023-05-10T04:14:04;3.70;;;1.77;;
76610;SDS011;65503;48.534;9.062;2023-05-10T04:16:31;3.78;;;1.50;;
76610;SDS011;65503;48.534;9.062;2023-05-10T04:18:57;2.85;;;1.45;;
76610;SDS011;65503;48.534;9.062;2023-05-10T04:21:24;3.33;;;1.60;;
76610;SDS011;65503;48.534;9.062;2023-05-10T04:23:50;2.67;;;1.52;;
76610;SDS011;65503;48.534;9.062;2023-05-10T04:26:17;3.20;;;1.60;;
76610;SDS011;65503;48.534;9.062;2023-05-10T04:28:43;2.13;;;1.40;;
76610;SDS011;65503;48.534;9.062;2023-05-10T04:31:10;3.70;;;2.05;;
76610;SDS011;65503;48.534;9.062;2023-05-10T04:33:36;3.00;;;1.52;;
76610;SDS011;65503;48.534;9.062;2023-05-10T04:36:03;3.45;;;1.90;;
76610;SDS011;65503;48.534;9.062;2023-05-10T04:38:30;4.03;;;1.88;;
76610;SDS011;65503;48.534;9.062;2023-05-10T04:41:06;3.70;;;1.73;;
76610;SDS011;65503;48.534;9.062;2023-05-10T04:43:33;6.00;;;1.98;;
76610;SDS011;65503;48.534;9.062;2023-05-10T04:46:01;4.18;;;1.92;;
76610;SDS011;65503;48.534;9.062;2023-05-10T04:48:27;5.18;;;1.90;;
76610;SDS011;65503;48.534;9.062;2023-05-10T04:50:54;5.95;;;2.00;;
76610;SDS011;65503;48.534;9.062;2023-05-10T04:53:20;4.53;;;2.20;;
76610;SDS011;65503;48.534;9.062;2023-05-10T04:55:47;4.20;;;2.15;;
76610;SDS011;65503;48.534;9.062;2023-05-10T04:58:14;4.63;;;2.00;;
76610;SDS011;65503;48.534;9.062;2023-05-10T05:00:40;6.30;;;2.20;;
76610;SDS011;65503;48.534;9.062;2023-05-10T05:03:08;7.40;;;2.05;;
76610;SDS011;65503;48.534;9.062;2023-05-10T05:05:34;3.55;;;1.80;;
76610;SDS011;65503;48.534;9.062;2023-05-10T05:08:01;3.53;;;1.90;;
76610;SDS011;65503;48.534;9.062;2023-05-10T05:10:27;4.38;;;1.90;;
76610;SDS011;65503;48.534;9.062;2023-05-10T05:12:54;3.55;;;1.50;;
76610;SDS011;65503;48.534;9.062;2023-05-10T05:15:20;2.70;;;1.50;;
76610;SDS011;65503;48.534;9.062;2023-05-10T05:17:47;3.42;;;1.80;;
76610;SDS011;65503;48.534;9.062;2023-05-10T05:20:14;2.65;;;1.40;;
76610;SDS011;65503;48.534;9.062;2023-05-10T05:25:07;2.42;;;1.45;;
76610;SDS011;65503;48.534;9.062;2023-05-10T05:27:34;2.67;;;1.35;;
76610;SDS011;65503;48.534;9.062;2023-05-10T05:30:00;8.25;;;1.60;;
76610;SDS011;65503;48.534;9.062;2023-05-10T05:32:27;2.30;;;1.50;;
76610;SDS011;65503;48.534;9.062;2023-05-10T05:34:53;2.80;;;1.58;;
76610;SDS011;65503;48.534;9.062;2023-05-10T05:37:20;4.13;;;1.65;;
76610;SDS011;65503;48.534;9.062;2023-05-10T05:39:48;4.75;;;2.00;;
76610;SDS011;65503;48.534;9.062;2023-05-10T05:42:14;5.47;;;1.63;;
76610;SDS011;65503;48.534;9.062;2023-05-10T05:44:42;4.13;;;1.90;;
76610;SDS011;65503;48.534;9.062;2023-05-10T05:47:09;3.20;;;1.80;;
76610;SDS011;65503;48.534;9.062;2023-05-10T05:49:35;5.82;;;2.00;;
76610;SDS011;65503;48.534;9.062;2023-05-10T05:52:02;2.70;;;1.80;;
76610;SDS011;65503;48.534;9.062;2023-05-10T05:54:30;4.13;;;1.92;;
76610;SDS011;65503;48.534;9.062;2023-05-10T05:56:57;3.80;;;1.98;;
76610;SDS011;65503;48.534;9.062;2023-05-10T05:59:26;5.05;;;2.20;;
76610;SDS011;65503;48.534;9.062;2023-05-10T06:01:53;4.38;;;2.03;;
76610;SDS011;65503;48.534;9.062;2023-05-10T06:04:20;4.10;;;2.13;;
76610;SDS011;65503;48.534;9.062;2023-05-10T06:06:46;3.78;;;1.92;;
76610;SDS011;65503;48.534;9.062;2023-05-10T06:09:13;3.53;;;1.90;;
76610;SDS011;65503;48.534;9.062;2023-05-10T06:11:39;4.40;;;2.00;;
76610;SDS011;65503;48.534;9.062;2023-05-10T06:14:06;2.78;;;1.80;;
76610;SDS011;65503;48.534;9.062;2023-05-10T06:16:34;3.03;;;1.83;;
76610;SDS011;65503;48.534;9.062;2023-05-10T06:19:00;5.65;;;2.33;;
76610;SDS011;65503;48.534;9.062;2023-05-10T06:21:27;6.07;;;1.70;;
76610;SDS011;65503;48.534;9.062;2023-05-10T06:23:53;6.63;;;1.70;;
76610;SDS011;65503;48.534;9.062;2023-05-10T06:26:20;4.90;;;1.73;;
76610;SDS011;65503;48.534;9.062;2023-05-10T06:28:47;3.35;;;1.75;;
76610;SDS011;65503;48.534;9.062;2023-05-10T06:31:14;3.08;;;1.55;;
76610;SDS011;65503;48.534;9.062;2023-05-10T06:33:40;4.25;;;1.70;;
76610;SDS011;65503;48.534;9.062;2023-05-10T06:36:07;4.35;;;1.83;;
76610;SDS011;65503;48.534;9.062;2023-05-10T06:38:33;4.40;;;1.65;;
76610;SDS011;65503;48.534;9.062;2023-05-10T06:40:59;4.38;;;1.70;;
76610;SDS011;65503;48.534;9.062;2023-05-10T06:43:26;2.58;;;1.60;;
76610;SDS011;65503;48.534;9.062;2023-05-10T06:45:54;7.25;;;1.63;;
76610;SDS011;65503;48.534;9.062;2023-05-10T06:48:21;4.35;;;2.38;;
76610;SDS011;65503;48.534;9.062;2023-05-10T06:50:47;4.85;;;1.58;;
76610;SDS011;65503;48.534;9.062;2023-05-10T06:53:14;3.15;;;1.42;;
76610;SDS011;65503;48.534;9.062;2023-05-10T06:55:41;4.57;;;1.50;;
76610;SDS011;65503;48.534;9.062;2023-05-10T06:58:07;3.22;;;1.70;;
76610;SDS011;65503;48.534;9.062;2023-05-10T07:00:34;11.30;;;2.03;;
76610;SDS011;65503;48.534;9.062;2023-05-10T07:03:01;3.28;;;1.70;;
76610;SDS011;65503;48.534;9.062;2023-05-10T07:05:27;4.07;;;1.73;;
76610;SDS011;65503;48.534;9.062;2023-05-10T07:07:54;3.58;;;1.17;;
76610;SDS011;65503;48.534;9.062;2023-05-10T07:10:20;2.08;;;1.40;;
76610;SDS011;65503;48.534;9.062;2023-05-10T07:12:47;3.17;;;1.25;;
76610;SDS011;65503;48.534;9.062;2023-05-10T07:15:13;1.63;;;1.20;;
76610;SDS011;65503;48.534;9.062;2023-05-10T07:17:40;1.42;;;1.00;;
76610;SDS011;65503;48.534;9.062;2023-05-10T07:20:10;1.75;;;1.20;;
76610;SDS011;65503;48.534;9.062;2023-05-10T07:22:37;4.38;;;1.15;;
76610;SDS011;65503;48.534;9.062;2023-05-10T07:25:04;3.03;;;1.40;;
76610;SDS011;65503;48.534;9.062;2023-05-10T07:27:31;1.85;;;1.10;;
76610;SDS011;65503;48.534;9.062;2023-05-10T07:29:58;2.55;;;1.30;;
76610;SDS011;65503;48.534;9.062;2023-05-10T07:32:25;3.00;;;1.20;;
76610;SDS011;65503;48.534;9.062;2023-05-10T07:34:52;2.38;;;1.27;;
76610;SDS011;65503;48.534;9.062;2023-05-10T07:37:18;1.45;;;1.05;;
76610;SDS011;65503;48.534;9.062;2023-05-10T07:39:45;4.80;;;1.40;;
76610;SDS011;65503;48.534;9.062;2023-05-10T07:42:11;1.80;;;1.20;;
76610;SDS011;65503;48.534;9.062;2023-05-10T07:44:37;2.10;;;1.10;;
76610;SDS011;65503;48.534;9.062;2023-05-10T07:47:04;2.83;;;1.17;;
76610;SDS011;65503;48.534;9.062;2023-05-10T07:49:30;3.22;;;1.33;;
76610;SDS011;65503;48.534;9.062;2023-05-10T07:51:57;1.73;;;1.20;;
76610;SDS011;65503;48.534;9.062;2023-05-10T07:54:24;3.92;;;1.45;;
76610;SDS011;65503;48.534;9.062;2023-05-10T07:56:50;4.25;;;1.10;;
76610;SDS011;65503;48.534;9.062;2023-05-10T07:59:17;2.15;;;1.30;;
76610;SDS011;65503;48.534;9.062;2023-05-10T08:01:44;3.50;;;1.30;;
76610;SDS011;65503;48.534;9.062;2023-05-10T08:04:11;1.30;;;0.90;;
76610;SDS011;65503;48.534;9.062;2023-05-10T08:06:38;1.77;;;0.90;;
76610;SDS011;65503;48.534;9.062;2023-05-10T08:09:05;3.38;;;0.90;;
76610;SDS011;65503;48.534;9.062;2023-05-10T08:11:32;1.08;;;0.80;;
76610;SDS011;65503;48.534;9.062;2023-05-10T08:14:00;1.63;;;1.05;;
76610;SDS011;65503;48.534;9.062;2023-05-10T08:16:26;4.13;;;0.98;;
76610;SDS011;65503;48.534;9.062;2023-05-10T08:18:53;1.92;;;0.90;;
76610;SDS011;65503;48.534;9.062;2023-05-10T08:21:21;1.48;;;0.90;;
76610;SDS011;65503;48.534;9.062;2023-05-10T08:23:48;1.20;;;0.90;;
76610;SDS011;65503;48.534;9.062;2023-05-10T08:26:15;2.80;;;0.98;;
76610;SDS011;65503;48.534;9.062;2023-05-10T08:28:41;2.78;;;0.90;;
76610;SDS011;65503;48.534;9.062;2023-05-10T08:31:08;1.25;;;0.80;;
76610;SDS011;65503;48.534;9.062;2023-05-10T08:33:34;1.27;;;0.70;;
76610;SDS011;65503;48.534;9.062;2023-05-10T08:36:01;2.45;;;0.80;;
76610;SDS011;65503;48.534;9.062;2023-05-10T08:38:27;0.90;;;0.82;;
76610;SDS011;65503;48.534;9.062;2023-05-10T08:40:54;2.70;;;0.73;;
76610;SDS011;65503;48.534;9.062;2023-05-10T08:43:26;3.08;;;0.93;;
76610;SDS011;65503;48.534;9.062;2023-05-10T08:45:55;2.85;;;0.80;;
76610;SDS011;65503;48.534;9.062;2023-05-10T08:48:23;1.15;;;0.70;;
76610;SDS011;65503;48.534;9.062;2023-05-10T08:50:52;4.43;;;0.77;;
76610;SDS011;65503;48.534;9.062;2023-05-10T08:53:21;0.60;;;0.60;;
76610;SDS011;65503;48.534;9.062;2023-05-10T08:55:52;0.60;;;0.52;;
76610;SDS011;65503;48.534;9.062;2023-05-10T08:58:19;0.60;;;0.60;;
76610;SDS011;65503;48.534;9.062;2023-05-10T09:00:46;1.08;;;0.50;;
76610;SDS011;65503;48.534;9.062;2023-05-10T09:03:14;1.75;;;0.70;;
76610;SDS011;65503;48.534;9.062;2023-05-10T09:05:41;0.88;;;0.65;;
76610;SDS011;65503;48.534;9.062;2023-05-10T09:08:08;0.60;;;0.60;;
76610;SDS011;65503;48.534;9.062;2023-05-10T09:10:35;4.00;;;0.60;;
76610;SDS011;65503;48.534;9.062;2023-05-10T09:13:03;0.85;;;0.50;;
76610;SDS011;65503;48.534;9.062;2023-05-10T09:15:30;1.67;;;0.82;;
76610;SDS011;65503;48.534;9.062;2023-05-10T09:17:57;0.57;;;0.50;;
76610;SDS011;65503;48.534;9.062;2023-05-10T09:20:25;0.95;;;0.60;;
76610;SDS011;65503;48.534;9.062;2023-05-10T09:22:52;0.80;;;0.68;;
76610;SDS011;65503;48.534;9.062;2023-05-10T09:25:19;0.57;;;0.38;;
76610;SDS011;65503;48.534;9.062;2023-05-10T09:30:17;0.57;;;0.50;;
76610;SDS011;65503;48.534;9.062;2023-05-10T09:32:51;0.50;;;0.50;;
76610;SDS011;65503;48.534;9.062;2023-05-10T09:35:19;0.52;;;0.47;;
76610;SDS011;65503;48.534;9.062;2023-05-10T09:37:49;1.48;;;0.60;;
76610;SDS011;65503;48.534;9.062;2023-05-10T09:40:17;2.17;;;0.60;;
76610;SDS011;65503;48.534;9.062;2023-05-10T09:45:20;0.77;;;0.40;;
76610;SDS011;65503;48.534;9.062;2023-05-10T09:47:48;0.40;;;0.40;;
76610;SDS011;65503;48.534;9.062;2023-05-10T09:50:14;0.40;;;0.40;;
76610;SDS011;65503;48.534;9.062;2023-05-10T09:55:14;0.50;;;0.40;;
76610;SDS011;65503;48.534;9.062;2023-05-10T09:57:41;0.77;;;0.50;;
76610;SDS011;65503;48.534;9.062;2023-05-10T10:00:08;0.68;;;0.40;;
76610;SDS011;65503;48.534;9.062;2023-05-10T10:02:39;0.70;;;0.70;;
76610;SDS011;65503;48.534;9.062;2023-05-10T10:07:33;1.23;;;0.60;;
76610;SDS011;65503;48.534;9.062;2023-05-10T10:12:26;0.68;;;0.60;;
76610;SDS011;65503;48.534;9.062;2023-05-10T10:14:53;1.15;;;0.80;;
76610;SDS011;65503;48.534;9.062;2023-05-10T10:17:21;1.65;;;0.60;;
76610;SDS011;65503;48.534;9.062;2023-05-10T10:19:48;3.50;;;0.70;;
76610;SDS011;65503;48.534;9.062;2023-05-10T10:22:15;0.98;;;0.70;;
76610;SDS011;65503;48.534;9.062;2023-05-10T10:24:43;1.63;;;0.70;;
76610;SDS011;65503;48.534;9.062;2023-05-10T10:30:23;1.92;;;0.60;;
76610;SDS011;65503;48.534;9.062;2023-05-10T10:36:00;3.25;;;0.70;;
76610;SDS011;65503;48.534;9.062;2023-05-10T10:38:54;1.83;;;0.90;;
76610;SDS011;65503;48.534;9.062;2023-05-10T10:47:07;1.67;;;0.55;;
76610;SDS011;65503;48.534;9.062;2023-05-10T10:52:37;2.35;;;0.73;;
76610;SDS011;65503;48.534;9.062;2023-05-10T10:55:07;1.02;;;0.73;;
76610;SDS011;65503;48.534;9.062;2023-05-10T10:57:49;2.80;;;1.00;;
76610;SDS011;65503;48.534;9.062;2023-05-10T11:08:15;0.50;;;0.50;;
76610;SDS011;65503;48.534;9.062;2023-05-10T11:13:29;2.38;;;0.93;;
76610;SDS011;65503;48.534;9.062;2023-05-10T11:15:55;3.25;;;0.55;;
76610;SDS011;65503;48.534;9.062;2023-05-10T11:18:26;0.68;;;0.52;;
76610;SDS011;65503;48.534;9.062;2023-05-10T11:20:59;2.78;;;0.40;;
76610;SDS011;65503;48.534;9.062;2023-05-10T11:23:29;0.47;;;0.47;;
76610;SDS011;65503;48.534;9.062;2023-05-10T11:26:13;0.68;;;0.50;;
76610;SDS011;65503;48.534;9.062;2023-05-10T11:28:47;2.13;;;0.52;;
76610;SDS011;65503;48.534;9.062;2023-05-10T11:31:15;3.75;;;0.60;;
76610;SDS011;65503;48.534;9.062;2023-05-10T11:33:46;1.75;;;0.60;;
76610;SDS011;65503;48.534;9.062;2023-05-10T11:36:14;2.25;;;0.50;;
76610;SDS011;65503;48.534;9.062;2023-05-10T11:38:42;1.42;;;0.47;;
76610;SDS011;65503;48.534;9.062;2023-05-10T11:41:09;4.22;;;0.63;;
76610;SDS011;65503;48.534;9.062;2023-05-10T11:43:40;2.05;;;0.70;;
76610;SDS011;65503;48.534;9.062;2023-05-10T11:46:08;1.17;;;0.70;;
76610;SDS011;65503;48.534;9.062;2023-05-10T11:48:40;4.10;;;0.60;;
76610;SDS011;65503;48.534;9.062;2023-05-10T11:51:07;1.48;;;0.80;;
76610;SDS011;65503;48.534;9.062;2023-05-10T11:53:34;2.03;;;0.82;;
76610;SDS011;65503;48.534;9.062;2023-05-10T11:56:05;1.50;;;0.70;;
76610;SDS011;65503;48.534;9.062;2023-05-10T11:58:36;3.75;;;1.17;;
76610;SDS011;65503;48.534;9.062;2023-05-10T12:01:04;1.27;;;0.82;;
76610;SDS011;65503;48.534;9.062;2023-05-10T12:03:31;2.08;;;1.00;;
76610;SDS011;65503;48.534;9.062;2023-05-10T12:11:03;2.15;;;0.90;;
76610;SDS011;65503;48.534;9.062;2023-05-10T12:13:31;2.50;;;0.90;;
76610;SDS011;65503;48.534;9.062;2023-05-10T12:15:57;3.10;;;1.33;;
76610;SDS011;65503;48.534;9.062;2023-05-10T12:18:25;3.20;;;1.00;;
76610;SDS011;65503;48.534;9.062;2023-05-10T12:20:52;1.65;;;0.68;;
76610;SDS011;65503;48.534;9.062;2023-05-10T12:23:20;2.72;;;0.80;;
76610;SDS011;65503;48.534;9.062;2023-05-10T12:25:47;4.95;;;0.90;;
76610;SDS011;65503;48.534;9.062;2023-05-10T12:28:13;4.93;;;0.98;;
76610;SDS011;65503;48.534;9.062;2023-05-10T12:30:40;3.08;;;0.80;;
76610;SDS011;65503;48.534;9.062;2023-05-10T12:33:07;1.17;;;0.52;;
76610;SDS011;65503;48.534;9.062;2023-05-10T12:38:24;2.30;;;1.00;;
76610;SDS011;65503;48.534;9.062;2023-05-10T12:41:02;2.90;;;1.00;;
76610;SDS011;65503;48.534;9.062;2023-05-10T12:43:30;3.90;;;0.90;;
76610;SDS011;65503;48.534;9.062;2023-05-10T12:45:57;1.80;;;0.70;;
76610;SDS011;65503;48.534;9.062;2023-05-10T12:48:24;0.85;;;0.75;;
76610;SDS011;65503;48.534;9.062;2023-05-10T12:50:51;2.47;;;0.65;;
76610;SDS011;65503;48.534;9.062;2023-05-10T12:53:17;5.22;;;0.80;;
76610;SDS011;65503;48.534;9.062;2023-05-10T12:55:45;2.78;;;0.70;;
76610;SDS011;65503;48.534;9.062;2023-05-10T12:58:11;1.40;;;1.00;;
76610;SDS011;65503;48.534;9.062;2023-05-10T13:00:43;0.80;;;0.80;;
76610;SDS011;65503;48.534;9.062;2023-05-10T13:03:10;1.02;;;0.60;;
76610;SDS011;65503;48.534;9.062;2023-05-10T13:05:36;2.40;;;0.70;;
76610;SDS011;65503;48.534;9.062;2023-05-10T13:08:03;1.58;;;0.60;;
76610;SDS011;65503;48.534;9.062;2023-05-10T13:10:30;2.55;;;0.90;;
76610;SDS011;65503;48.534;9.062;2023-05-10T13:12:57;7.88;;;1.60;;
76610;SDS011;65503;48.534;9.062;2023-05-10T13:17:51;3.28;;;0.80;;
76610;SDS011;65503;48.534;9.062;2023-05-10T13:20:19;1.25;;;0.85;;
76610;SDS011;65503;48.534;9.062;2023-05-10T13:22:45;3.70;;;0.65;;
76610;SDS011;65503;48.534;9.062;2023-05-10T13:25:12;2.58;;;0.88;;
76610;SDS011;65503;48.534;9.062;2023-05-10T13:27:39;3.13;;;0.80;;
76610;SDS011;65503;48.534;9.062;2023-05-10T13:35:00;1.40;;;1.02;;
76610;SDS011;65503;48.534;9.062;2023-05-10T13:37:29;2.38;;;0.90;;
76610;SDS011;65503;48.534;9.062;2023-05-10T13:39:56;2.85;;;0.82;;
76610;SDS011;65503;48.534;9.062;2023-05-10T13:42:23;2.83;;;1.00;;
76610;SDS011;65503;48.534;9.062;2023-05-10T13:44:50;3.55;;;0.95;;
76610;SDS011;65503;48.534;9.062;2023-05-10T13:47:16;2.30;;;0.95;;
76610;SDS011;65503;48.534;9.062;2023-05-10T13:49:43;3.85;;;1.02;;
76610;SDS011;65503;48.534;9.062;2023-05-10T13:52:10;2.95;;;1.10;;
76610;SDS011;65503;48.534;9.062;2023-05-10T13:54:36;3.42;;;0.88;;
76610;SDS011;65503;48.534;9.062;2023-05-10T13:57:04;1.67;;;0.88;;
76610;SDS011;65503;48.534;9.062;2023-05-10T13:59:31;2.80;;;0.95;;
76610;SDS011;65503;48.534;9.062;2023-05-10T14:02:01;2.28;;;0.80;;
76610;SDS011;65503;48.534;9.062;2023-05-10T14:04:30;3.33;;;0.80;;
76610;SDS011;65503;48.534;9.062;2023-05-10T14:06:57;1.30;;;0.90;;
76610;SDS011;65503;48.534;9.062;2023-05-10T14:09:24;3.45;;;1.02;;
76610;SDS011;65503;48.534;9.062;2023-05-10T14:11:50;7.18;;;1.48;;
76610;SDS011;65503;48.534;9.062;2023-05-10T14:14:17;2.83;;;0.90;;
76610;SDS011;65503;48.534;9.062;2023-05-10T14:16:44;4.75;;;0.80;;
76610;SDS011;65503;48.534;9.062;2023-05-10T14:19:11;2.83;;;0.90;;
76610;SDS011;65503;48.534;9.062;2023-05-10T14:21:38;3.83;;;1.15;;
76610;SDS011;65503;48.534;9.062;2023-05-10T14:24:04;1.40;;;0.85;;
76610;SDS011;65503;48.534;9.062;2023-05-10T14:26:32;3.25;;;0.98;;
76610;SDS011;65503;48.534;9.062;2023-05-10T14:29:00;4.90;;;1.02;;
76610;SDS011;65503;48.534;9.062;2023-05-10T14:31:27;1.48;;;0.85;;
76610;SDS011;65503;48.534;9.062;2023-05-10T14:33:53;2.78;;;0.98;;
76610;SDS011;65503;48.534;9.062;2023-05-10T14:36:20;1.90;;;1.00;;
76610;SDS011;65503;48.534;9.062;2023-05-10T14:38:46;2.95;;;1.00;;
76610;SDS011;65503;48.534;9.062;2023-05-10T14:41:12;1.52;;;0.80;;
76610;SDS011;65503;48.534;9.062;2023-05-10T14:43:41;3.50;;;1.45;;
76610;SDS011;65503;48.534;9.062;2023-05-10T14:46:07;3.50;;;0.70;;
76610;SDS011;65503;48.534;9.062;2023-05-10T14:51:01;2.20;;;1.10;;
76610;SDS011;65503;48.534;9.062;2023-05-10T14:53:28;3.00;;;0.90;;
76610;SDS011;65503;48.534;9.062;2023-05-10T14:55:54;2.72;;;1.00;;
76610;SDS011;65503;48.534;9.062;2023-05-10T14:58:21;1.17;;;0.90;;
76610;SDS011;65503;48.534;9.062;2023-05-10T15:00:47;1.33;;;0.85;;
76610;SDS011;65503;48.534;9.062;2023-05-10T15:03:15;2.35;;;0.90;;
76610;SDS011;65503;48.534;9.062;2023-05-10T15:08:09;5.85;;;1.00;;
76610;SDS011;65503;48.534;9.062;2023-05-10T15:10:35;4.00;;;1.00;;
76610;SDS011;65503;48.534;9.062;2023-05-10T15:13:03;3.75;;;1.00;;
76610;SDS011;65503;48.534;9.062;2023-05-10T15:15:30;0.80;;;0.77;;
76610;SDS011;65503;48.534;9.062;2023-05-10T15:17:57;1.05;;;0.73;;
76610;SDS011;65503;48.534;9.062;2023-05-10T15:20:23;2.22;;;0.70;;
76610;SDS011;65503;48.534;9.062;2023-05-10T15:22:50;3.45;;;0.95;;
76610;SDS011;65503;48.534;9.062;2023-05-10T15:25:16;3.45;;;0.70;;
76610;SDS011;65503;48.534;9.062;2023-05-10T15:27:43;1.25;;;0.65;;
76610;SDS011;65503;48.534;9.062;2023-05-10T15:30:10;0.73;;;0.70;;
76610;SDS011;65503;48.534;9.062;2023-05-10T15:32:37;2.25;;;0.70;;
76610;SDS011;65503;48.534;9.062;2023-05-10T15:35:06;1.77;;;0.75;;
76610;SDS011;65503;48.534;9.062;2023-05-10T15:37:34;1.13;;;0.60;;
76610;SDS011;65503;48.534;9.062;2023-05-10T15:40:00;0.75;;;0.52;;
76610;SDS011;65503;48.534;9.062;2023-05-10T15:42:30;1.77;;;0.75;;
76610;SDS011;65503;48.534;9.062;2023-05-10T15:44:58;4.38;;;1.02;;
76610;SDS011;65503;48.534;9.062;2023-05-10T15:47:25;2.53;;;0.93;;
76610;SDS011;65503;48.534;9.062;2023-05-10T15:49:52;3.33;;;0.60;;
76610;SDS011;65503;48.534;9.062;2023-05-10T15:52:19;0.88;;;0.60;;
76610;SDS011;65503;48.534;9.062;2023-05-10T15:54:46;1.65;;;0.68;;
76610;SDS011;65503;48.534;9.062;2023-05-10T15:57:13;1.15;;;0.90;;
76610;SDS011;65503;48.534;9.062;2023-05-10T15:59:39;1.20;;;0.60;;
76610;SDS011;65503;48.534;9.062;2023-05-10T16:02:06;0.65;;;0.60;;
76610;SDS011;65503;48.534;9.062;2023-05-10T16:04:34;0.70;;;0.60;;
76610;SDS011;65503;48.534;9.062;2023-05-10T16:07:00;3.13;;;0.80;;
76610;SDS011;65503;48.534;9.062;2023-05-10T16:09:27;0.57;;;0.57;;
76610;SDS011;65503;48.534;9.062;2023-05-10T16:11:53;4.00;;;0.80;;